createdAt,value
2022-10-06T00:03:48.608Z,0.46
2022-10-06T00:18:48.644Z,0.63
2022-10-06T00:33:48.710Z,0.62
2022-10-06T00:48:48.790Z,0.58
2022-10-06T01:18:49.108Z,0.58
2022-10-06T01:33:49.186Z,1.07
2022-10-06T01:48:49.424Z,0.68
2022-10-06T02:03:48.695Z,0.79
2022-10-06T02:18:48.971Z,0.67
2022-10-06T02:33:48.533Z,0.59
2022-10-06T02:48:48.806Z,0.65
2022-10-06T03:03:49.139Z,0.95
2022-10-06T03:18:48.509Z,1.06
2022-10-06T03:33:48.811Z,1.8
2022-10-06T03:48:49.057Z,1.08
2022-10-06T04:03:48.664Z,3.2
2022-10-06T04:18:49.101Z,1.61
2022-10-06T04:33:49.320Z,2.51
2022-10-06T04:48:48.949Z,2.24
2022-10-06T05:18:49.104Z,5.29
2022-10-06T05:33:48.779Z,9.71
2022-10-06T05:48:48.979Z,4.5
2022-10-06T06:03:48.512Z,3.33
2022-10-06T06:18:48.614Z,11.22
2022-10-06T06:33:49.008Z,13.62
2022-10-06T06:48:48.835Z,2.62
2022-10-06T07:03:57.859Z,2.12
2022-10-06T07:18:49.125Z,19.54
2022-10-06T07:33:49.292Z,3.92
2022-10-06T07:48:49.021Z,3.75
2022-10-06T08:03:48.983Z,3.27
2022-10-06T08:18:48.757Z,1.67
2022-10-06T08:33:48.695Z,10.16
2022-10-06T08:48:49.033Z,2.84
2022-10-06T09:03:48.433Z,2.02
2022-10-06T09:19:07.543Z,4.17
2022-10-06T09:33:49.223Z,2.18
2022-10-06T09:48:49.102Z,2
2022-10-06T10:04:02.296Z,2.44
2022-10-06T10:18:49.226Z,1.74
2022-10-06T10:33:53.871Z,2.03
2022-10-06T10:48:49.188Z,2.33
2022-10-06T11:03:49.290Z,2.44
2022-10-06T11:18:49.244Z,2.52
2022-10-06T11:33:48.538Z,2.17
2022-10-06T11:48:49.438Z,2.8
2022-10-06T12:03:48.560Z,2.89
2022-10-06T12:18:48.656Z,3.52
2022-10-06T12:33:48.993Z,4.04
2022-10-06T12:48:48.407Z,3.93
2022-10-06T13:03:48.719Z,4.16
2022-10-06T13:18:49.533Z,4.54
2022-10-06T13:33:48.708Z,4.72
2022-10-06T13:48:49.128Z,4.98
2022-10-06T14:03:48.801Z,4.84
2022-10-06T14:18:48.438Z,4.88
2022-10-06T14:33:48.987Z,5.69
2022-10-06T14:48:48.645Z,5.31
2022-10-06T15:03:49.488Z,7.44
2022-10-06T15:18:49.035Z,7.92
2022-10-06T15:33:52.948Z,8.07
2022-10-06T15:48:49.153Z,11.43
2022-10-06T16:03:48.525Z,7.41
2022-10-06T16:18:48.471Z,7.87
2022-10-06T16:33:49.017Z,6.59
2022-10-06T16:48:49.226Z,6.76
2022-10-06T17:03:48.677Z,5.75
2022-10-06T17:18:49.187Z,7.32
2022-10-06T17:33:48.944Z,11.21
2022-10-06T17:48:48.559Z,6.54
2022-10-06T18:03:49.185Z,7.38
2022-10-06T18:18:49.111Z,8.85
2022-10-06T18:48:48.992Z,22.38
2022-10-06T19:03:48.646Z,40.1
2022-10-06T19:18:48.700Z,15.69
2022-10-06T19:33:48.822Z,14.5
2022-10-06T19:48:49.315Z,18.26
2022-10-06T20:03:48.597Z,13.77
2022-10-06T20:18:48.995Z,13.16
2022-10-06T20:33:49.128Z,13.48
2022-10-06T20:48:48.783Z,12.29
2022-10-06T21:03:48.527Z,13.52
2022-10-06T21:18:48.728Z,9.44
2022-10-06T21:33:49.316Z,7.59
2022-10-06T21:48:49.167Z,8.08
2022-10-06T22:03:49.140Z,8.11
2022-10-06T22:18:49.195Z,7.84
2022-10-06T22:33:49.388Z,7.54
2022-10-06T22:48:49.123Z,7.36
2022-10-06T23:03:49.023Z,7.35
2022-10-06T23:18:48.435Z,6.93
2022-10-06T23:33:48.570Z,7.25
2022-10-06T23:48:48.730Z,7.37
